METAR OBSERVATIONS
Looking Back 6 hours

  • KPBF 270630Z AUTO 29011KT 10SM SCT012 OVC016 12/09 A2973 RMK AO2 T01170089 =
  • KPBF 270553Z AUTO 29007KT 10SM OVC014 12/10 A2973 RMK AO2 SLP065 60008 T01170100 10161 20117 402440117 53023 =
  • KPBF 270453Z AUTO 29012KT 10SM OVC011 13/11 A2969 RMK AO2 SLP052 T01280106 =
  • KPBF 270433Z AUTO 29013KT 10SM OVC009 13/12 A2967 RMK AO2 T01280117 =
  • KPBF 270400Z AUTO 29008KT 10SM BKN010 BKN015 OVC036 14/12 A2966 RMK AO2 T01390122 =
  • KPBF 270353Z AUTO 28008KT 10SM SCT010 BKN016 OVC036 14/12 A2966 RMK AO2 SLP041 T01390122 =
  • KPBF 270308Z AUTO 29013G20KT 10SM OVC010 15/14 A2963 RMK AO2 CIG007V011 T01500139 =
  • KPBF 270253Z AUTO 28012G17KT 10SM OVC008 16/15 A2961 RMK AO2 CIG005V013 PRESRR SLP024 60008 T01610150 53030 =
  • KPBF 270226Z AUTO 25007KT 7SM BKN009 OVC018 16/16 A2958 RMK AO2 CIG006V012 T01610156 =
  • KPBF 270217Z AUTO 25006KT 5SM BR SCT005 SCT011 OVC018 16/16 A2958 RMK AO2 T01610156 =
  • KPBF 270153Z AUTO 27008KT 10SM OVC006 16/16 A2955 RMK AO2 RAE13 SLP004 P0000 T01610156 =
  • KPBF 270108Z AUTO 32004KT 10SM -RA BKN006 BKN011 OVC041 16/16 A2951 RMK AO2 LTG DSNT E P0000 T01560156 =
  • KPBF 270100Z AUTO 26006KT 10SM -RA BKN004 BKN012 OVC040 16/15 A2954 RMK AO2 LTG DSNT SE P0000 T01560150 =
    ________________________________________